createdAt,value
2023-02-26T00:01:15.055Z,100971.81
2023-02-26T00:03:42.052Z,100977.84
2023-02-26T00:06:09.514Z,100981.75
2023-02-26T00:08:36.534Z,100989.84
2023-02-26T00:11:06.774Z,100982.75
2023-02-26T00:13:33.843Z,100992.34
2023-02-26T00:16:01.899Z,100987.03
2023-02-26T00:18:29.189Z,100998.78
2023-02-26T00:20:56.108Z,101000.19
2023-02-26T00:23:24.101Z,101005.84
2023-02-26T00:25:50.738Z,101007.44
2023-02-26T00:28:17.729Z,101011.16
2023-02-26T00:30:45.599Z,101017.41
2023-02-26T00:33:12.401Z,101020.84
2023-02-26T00:35:39.294Z,101024.47
2023-02-26T00:38:09.272Z,101028.38
2023-02-26T00:40:48.126Z,101028.34
2023-02-26T00:43:24.708Z,101038.81
2023-02-26T00:46:03.877Z,101038.91
2023-02-26T00:48:49.182Z,101032.81
2023-02-26T00:51:31.148Z,101036.41
2023-02-26T00:54:19.509Z,101045.59
2023-02-26T00:56:46.085Z,101053.72
2023-02-26T00:59:12.683Z,101055.50
2023-02-26T01:01:39.781Z,101060.44
2023-02-26T01:04:07.071Z,101063.59
2023-02-26T01:06:38.441Z,101066.53
2023-02-26T01:09:08.003Z,101068.56
2023-02-26T01:11:35.521Z,101064.31
2023-02-26T01:14:04.484Z,101057.91
2023-02-26T01:16:38.173Z,101059.47
2023-02-26T01:19:33.756Z,101072.75
2023-02-26T01:22:07.963Z,101067.44
2023-02-26T01:24:36.430Z,101070.00
2023-02-26T01:27:03.598Z,101071.34
2023-02-26T01:29:30.382Z,101076.97
2023-02-26T01:32:15.956Z,101078.34
2023-02-26T01:34:47.245Z,101078.63
2023-02-26T01:37:34.184Z,101073.91
2023-02-26T01:40:51.467Z,101076.88
2023-02-26T01:43:28.845Z,101072.88
2023-02-26T01:46:05.450Z,101084.31
2023-02-26T01:48:47.239Z,101082.94
2023-02-26T01:51:13.964Z,101078.31
2023-02-26T01:53:40.560Z,101084.13
2023-02-26T01:56:19.499Z,101085.66
2023-02-26T01:58:50.076Z,101093.13
2023-02-26T02:01:16.658Z,101095.19
2023-02-26T02:03:43.600Z,101093.53
2023-02-26T02:06:18.171Z,101091.34
2023-02-26T02:08:45.560Z,101099.50
2023-02-26T02:11:13.234Z,101097.66
2023-02-26T02:13:45.987Z,101108.47
2023-02-26T02:16:37.178Z,101109.16
2023-02-26T02:19:10.077Z,101104.16
2023-02-26T02:21:54.356Z,101103.34
2023-02-26T02:24:28.899Z,101107.50
2023-02-26T02:27:18.969Z,101101.91
2023-02-26T02:30:24.157Z,101100.03
2023-02-26T02:33:15.066Z,101107.50
2023-02-26T02:35:48.611Z,101113.13
2023-02-26T02:38:21.410Z,101118.44
2023-02-26T02:40:55.120Z,101116.66
2023-02-26T02:43:28.752Z,101126.38
2023-02-26T02:46:04.120Z,101132.06
2023-02-26T02:48:42.349Z,101134.53
2023-02-26T02:51:53.788Z,101137.34
2023-02-26T02:54:26.593Z,101144.94
2023-02-26T02:57:04.468Z,101151.91
2023-02-26T02:59:45.467Z,101156.78
2023-02-26T03:02:33.846Z,101154.09
2023-02-26T03:05:00.584Z,101157.00
2023-02-26T03:07:33.298Z,101158.97
2023-02-26T03:10:00.197Z,101154.25
2023-02-26T03:12:31.172Z,101159.56
2023-02-26T03:14:58.423Z,101169.88
2023-02-26T03:18:09.823Z,101170.00
2023-02-26T03:20:47.202Z,101175.41
2023-02-26T03:23:16.863Z,101185.78
2023-02-26T03:26:03.390Z,101186.50
2023-02-26T03:28:41.835Z,101187.41
2023-02-26T03:31:21.009Z,101188.50
2023-02-26T03:34:00.390Z,101194.84
2023-02-26T03:36:31.801Z,101197.31
2023-02-26T03:39:23.023Z,101206.78
2023-02-26T03:42:08.355Z,101211.56
2023-02-26T03:44:59.144Z,101212.56
2023-02-26T03:47:27.414Z,101222.34
2023-02-26T03:50:13.273Z,101221.31
2023-02-26T03:52:50.689Z,101226.63
2023-02-26T03:55:32.519Z,101229.59
2023-02-26T03:58:06.132Z,101223.22
2023-02-26T04:00:46.362Z,101238.41
2023-02-26T04:03:19.312Z,101236.44
2023-02-26T04:05:51.629Z,101232.59
2023-02-26T04:08:20.793Z,101235.44
2023-02-26T04:11:06.210Z,101249.50
2023-02-26T04:13:33.340Z,101255.34
2023-02-26T04:16:01.147Z,101251.66
2023-02-26T04:18:28.609Z,101255.75
2023-02-26T04:20:55.979Z,101256.97
2023-02-26T04:23:22.698Z,101264.53
2023-02-26T04:25:49.460Z,101276.78
2023-02-26T04:28:16.847Z,101284.25
2023-02-26T04:30:43.950Z,101280.16
2023-02-26T04:33:13.829Z,101286.34
2023-02-26T04:35:40.625Z,101295.34
2023-02-26T04:38:07.663Z,101294.44
2023-02-26T04:40:34.356Z,101284.97
2023-02-26T04:43:00.987Z,101292.34
2023-02-26T04:45:32.050Z,101293.50
2023-02-26T04:47:58.643Z,101292.13
2023-02-26T04:50:25.328Z,101300.09
2023-02-26T04:52:53.405Z,101296.28
2023-02-26T04:55:20.742Z,101306.41
2023-02-26T04:57:47.391Z,101306.69
2023-02-26T05:00:18.529Z,101314.03
2023-02-26T05:02:45.230Z,101315.22
2023-02-26T05:05:15.736Z,101309.28
2023-02-26T05:07:42.334Z,101315.28
2023-02-26T05:10:12.964Z,101317.66
2023-02-26T05:12:39.991Z,101327.75
2023-02-26T05:15:07.133Z,101333.09
2023-02-26T05:17:33.809Z,101341.31
2023-02-26T05:20:00.371Z,101331.78
2023-02-26T05:22:26.990Z,101338.34
2023-02-26T05:24:53.783Z,101337.22
2023-02-26T05:27:20.408Z,101346.53
2023-02-26T05:29:47.785Z,101346.09
2023-02-26T05:32:14.936Z,101341.63
2023-02-26T05:34:41.604Z,101347.16
2023-02-26T05:37:08.180Z,101345.56
2023-02-26T05:39:34.747Z,101357.41
2023-02-26T05:42:01.448Z,101365.50
2023-02-26T05:44:28.327Z,101370.28
2023-02-26T05:46:55.141Z,101364.63
2023-02-26T05:49:21.947Z,101364.97
2023-02-26T05:51:48.712Z,101369.31
2023-02-26T05:54:15.409Z,101375.38
2023-02-26T05:56:42.038Z,101379.84
2023-02-26T05:59:08.987Z,101391.47
2023-02-26T06:01:37.365Z,101393.81
2023-02-26T06:04:05.488Z,101399.59
2023-02-26T06:06:32.954Z,101407.00
2023-02-26T06:09:01.273Z,101413.47
2023-02-26T06:11:33.958Z,101413.88
2023-02-26T06:14:00.991Z,101409.78
2023-02-26T06:16:28.604Z,101434.69
2023-02-26T06:18:55.298Z,101431.72
2023-02-26T06:21:22.093Z,101437.50
2023-02-26T06:23:48.643Z,101443.72
2023-02-26T06:26:15.448Z,101453.50
2023-02-26T06:28:42.061Z,101450.16
2023-02-26T06:31:08.706Z,101457.91
2023-02-26T06:33:35.294Z,101455.69
2023-02-26T06:36:02.538Z,101450.59
2023-02-26T06:38:29.536Z,101466.34
2023-02-26T06:40:56.176Z,101469.91
2023-02-26T06:43:22.735Z,101473.22
2023-02-26T06:45:49.631Z,101471.25
2023-02-26T06:48:16.426Z,101477.22
2023-02-26T06:50:43.201Z,101483.91
2023-02-26T06:53:09.879Z,101498.84
2023-02-26T06:55:36.951Z,101497.84
2023-02-26T06:58:03.680Z,101498.22
2023-02-26T07:00:30.444Z,101494.78
2023-02-26T07:02:58.335Z,101504.44
2023-02-26T07:05:25.319Z,101499.00
2023-02-26T07:07:52.121Z,101509.22
2023-02-26T07:10:18.922Z,101510.44
2023-02-26T07:12:45.610Z,101512.75
2023-02-26T07:15:12.414Z,101518.78
2023-02-26T07:17:39.181Z,101521.88
2023-02-26T07:20:13.102Z,101528.31
2023-02-26T07:22:39.884Z,101532.31
2023-02-26T07:25:07.555Z,101532.53
2023-02-26T07:27:34.647Z,101524.66
2023-02-26T07:30:01.534Z,101529.41
2023-02-26T07:32:28.777Z,101525.91
2023-02-26T07:34:55.505Z,101526.91
2023-02-26T07:37:22.497Z,101533.88
2023-02-26T07:39:49.367Z,101523.88
2023-02-26T07:42:16.511Z,101534.97
2023-02-26T07:44:43.523Z,101544.97
2023-02-26T07:47:10.946Z,101546.97
2023-02-26T07:49:38.263Z,101564.09
2023-02-26T07:52:07.086Z,101568.97
2023-02-26T07:54:35.318Z,101562.88
2023-02-26T07:57:02.125Z,101574.41
2023-02-26T07:59:28.886Z,101576.44
2023-02-26T08:01:55.845Z,101580.00
2023-02-26T08:04:23.192Z,101581.97
2023-02-26T08:06:50.029Z,101580.09
2023-02-26T08:09:16.893Z,101585.84
2023-02-26T08:11:43.596Z,101586.94
2023-02-26T08:14:11.979Z,101593.47
2023-02-26T08:16:38.663Z,101595.31
2023-02-26T08:19:05.514Z,101605.09
2023-02-26T08:21:32.249Z,101605.94
2023-02-26T08:23:58.940Z,101604.56
2023-02-26T08:26:25.984Z,101603.13
2023-02-26T08:28:53.394Z,101607.00
2023-02-26T08:31:20.279Z,101612.72
2023-02-26T08:33:48.020Z,101619.69
2023-02-26T08:36:14.783Z,101627.75
2023-02-26T08:38:41.501Z,101623.78
2023-02-26T08:41:08.393Z,101631.16
2023-02-26T08:43:35.285Z,101635.59
2023-02-26T08:46:01.999Z,101639.50
2023-02-26T08:48:28.855Z,101637.91
2023-02-26T08:50:55.598Z,101643.44
2023-02-26T08:53:22.537Z,101652.84
2023-02-26T08:55:53.473Z,101651.31
2023-02-26T08:58:20.657Z,101652.31
2023-02-26T09:00:47.781Z,101655.53
2023-02-26T09:03:14.921Z,101665.84
2023-02-26T09:05:41.604Z,101657.84
2023-02-26T09:08:09.601Z,101661.31
2023-02-26T09:10:36.366Z,101675.56
2023-02-26T09:13:03.266Z,101675.78
2023-02-26T09:15:30.107Z,101675.59
2023-02-26T09:17:58.123Z,101689.38
2023-02-26T09:20:25.007Z,101690.06
2023-02-26T09:22:51.774Z,101679.97
2023-02-26T09:25:18.494Z,101680.16
2023-02-26T09:27:45.275Z,101691.03
2023-02-26T09:30:12.904Z,101694.28
2023-02-26T09:32:39.880Z,101701.09
2023-02-26T09:35:07.151Z,101693.19
2023-02-26T09:37:34.144Z,101700.69
2023-02-26T09:40:00.964Z,101708.00
2023-02-26T09:42:49.369Z,101718.44
2023-02-26T09:45:30.768Z,101707.81
2023-02-26T09:47:59.263Z,101702.09
2023-02-26T09:50:38.128Z,101719.63
2023-02-26T09:53:10.671Z,101716.91
2023-02-26T09:55:43.846Z,101715.50
2023-02-26T09:58:37.496Z,101723.59
2023-02-26T10:01:21.385Z,101725.75
2023-02-26T10:04:16.220Z,101729.53
2023-02-26T10:07:04.540Z,101729.72
2023-02-26T10:10:01.841Z,101740.88
2023-02-26T10:12:33.632Z,101738.16
2023-02-26T10:15:09.640Z,101738.47
2023-02-26T10:17:55.689Z,101743.63
2023-02-26T10:20:47.853Z,101735.72
2023-02-26T10:23:43.659Z,101738.09
2023-02-26T10:26:20.073Z,101733.19
2023-02-26T10:29:23.052Z,101740.53
2023-02-26T10:32:45.706Z,101746.69
2023-02-26T10:35:17.148Z,101758.59
2023-02-26T10:38:03.002Z,101753.00
2023-02-26T10:40:59.469Z,101762.44
2023-02-26T10:43:40.363Z,101760.25
2023-02-26T10:46:17.812Z,101755.91
2023-02-26T10:49:09.360Z,101765.56
2023-02-26T10:51:38.698Z,101767.69
2023-02-26T10:54:16.941Z,101764.94
2023-02-26T10:56:43.606Z,101768.69
2023-02-26T10:59:10.534Z,101770.41
2023-02-26T11:01:37.415Z,101780.69
2023-02-26T11:04:09.465Z,101775.06
2023-02-26T11:06:44.330Z,101771.84
2023-02-26T11:09:36.605Z,101767.16
2023-02-26T11:12:15.344Z,101769.72
2023-02-26T11:14:43.555Z,101771.38
2023-02-26T11:17:19.198Z,101768.41
2023-02-26T11:20:01.092Z,101778.03
2023-02-26T11:22:32.355Z,101770.50
2023-02-26T11:24:59.860Z,101771.91
2023-02-26T11:27:32.036Z,101771.81
2023-02-26T11:30:19.116Z,101768.88
2023-02-26T11:32:50.834Z,101768.06
2023-02-26T11:35:19.120Z,101773.91
2023-02-26T11:37:53.399Z,101773.28
2023-02-26T11:40:32.553Z,101769.69
2023-02-26T11:43:03.861Z,101774.81
2023-02-26T11:45:30.668Z,101768.78
2023-02-26T11:48:05.051Z,101771.47
2023-02-26T11:50:38.986Z,101757.78
2023-02-26T11:53:10.623Z,101771.03
2023-02-26T11:55:44.525Z,101770.03
2023-02-26T11:58:20.626Z,101775.00
2023-02-26T12:00:49.764Z,101768.16
2023-02-26T12:03:20.300Z,101765.88
2023-02-26T12:05:47.208Z,101772.31
2023-02-26T12:08:30.416Z,101768.78
2023-02-26T12:11:23.817Z,101772.84
2023-02-26T12:14:18.422Z,101762.84
2023-02-26T12:17:07.927Z,101774.22
2023-02-26T12:19:46.131Z,101769.22
2023-02-26T12:22:32.834Z,101771.72
2023-02-26T12:25:05.655Z,101773.03
2023-02-26T12:27:52.382Z,101773.34
2023-02-26T12:30:38.274Z,101769.16
2023-02-26T12:33:14.428Z,101769.69
2023-02-26T12:36:10.704Z,101771.13
2023-02-26T12:38:55.728Z,101766.69
2023-02-26T12:41:57.817Z,101768.94
2023-02-26T12:44:52.291Z,101767.59
2023-02-26T12:47:47.644Z,101774.97
2023-02-26T12:50:20.223Z,101781.25
2023-02-26T12:53:14.216Z,101782.63
2023-02-26T12:56:14.940Z,101783.50
2023-02-26T12:59:02.675Z,101770.75
2023-02-26T13:01:36.548Z,101775.91
2023-02-26T13:04:09.059Z,101771.38
2023-02-26T13:06:47.789Z,101777.75
2023-02-26T13:09:23.347Z,101774.28
2023-02-26T13:12:07.836Z,101778.56
2023-02-26T13:14:56.013Z,101773.41
2023-02-26T13:17:51.015Z,101778.47
2023-02-26T13:20:25.155Z,101774.28
2023-02-26T13:22:59.585Z,101774.06
2023-02-26T13:25:51.906Z,101782.00
2023-02-26T13:28:40.156Z,101787.69
2023-02-26T13:31:20.097Z,101782.31
2023-02-26T13:33:50.011Z,101779.91
2023-02-26T13:36:19.385Z,101769.88
2023-02-26T13:38:49.134Z,101772.34
2023-02-26T13:41:22.592Z,101774.84
2023-02-26T13:44:21.825Z,101775.19
2023-02-26T13:47:17.023Z,101768.41
2023-02-26T13:50:20.454Z,101757.84
2023-02-26T13:52:56.393Z,101769.78
2023-02-26T13:55:45.481Z,101764.00
2023-02-26T13:58:24.476Z,101766.59
2023-02-26T14:01:04.130Z,101757.34
2023-02-26T14:03:32.710Z,101753.94
2023-02-26T14:06:23.786Z,101753.94
2023-02-26T14:08:54.472Z,101754.56
2023-02-26T14:11:44.559Z,101740.78
2023-02-26T14:14:17.205Z,101750.50
2023-02-26T14:16:49.342Z,101756.03
2023-02-26T14:19:34.431Z,101758.28
2023-02-26T14:22:25.863Z,101764.84
2023-02-26T14:25:17.519Z,101748.16
2023-02-26T14:27:47.359Z,101756.88
2023-02-26T14:30:27.831Z,101756.59
2023-02-26T14:33:08.168Z,101763.53
2023-02-26T14:35:40.635Z,101767.13
2023-02-26T14:38:15.786Z,101771.22
2023-02-26T14:41:18.835Z,101765.25
2023-02-26T14:43:54.597Z,101761.75
2023-02-26T14:46:21.622Z,101768.28
2023-02-26T14:48:48.587Z,101771.16
2023-02-26T14:51:25.197Z,101771.28
2023-02-26T14:53:57.124Z,101778.09
2023-02-26T14:57:13.299Z,101772.00
2023-02-26T15:00:10.806Z,101775.41
2023-02-26T15:02:55.579Z,101775.56
2023-02-26T15:05:38.669Z,101772.34
2023-02-26T15:08:22.593Z,101773.34
2023-02-26T15:11:19.992Z,101776.50
2023-02-26T15:14:24.267Z,101773.66
2023-02-26T15:16:53.754Z,101788.88
2023-02-26T15:19:26.481Z,101771.78
2023-02-26T15:21:59.948Z,101775.25
2023-02-26T15:24:29.622Z,101778.00
2023-02-26T15:27:00.112Z,101779.44
2023-02-26T15:29:31.532Z,101783.22
2023-02-26T15:32:05.761Z,101779.97
2023-02-26T15:34:34.149Z,101784.75
2023-02-26T15:37:01.365Z,101795.78
2023-02-26T15:39:28.132Z,101793.63
2023-02-26T15:41:56.216Z,101795.59
2023-02-26T15:44:27.652Z,101793.63
2023-02-26T15:47:03.526Z,101797.31
2023-02-26T15:49:38.284Z,101800.97
2023-02-26T15:52:07.614Z,101794.94
2023-02-26T15:54:54.526Z,101800.72
2023-02-26T15:57:24.297Z,101794.88
2023-02-26T15:59:54.124Z,101792.72
2023-02-26T16:02:32.352Z,101796.28
2023-02-26T16:04:59.468Z,101798.47
2023-02-26T16:07:26.329Z,101809.03
2023-02-26T16:09:54.851Z,101806.47
2023-02-26T16:12:36.505Z,101815.13
2023-02-26T16:15:08.296Z,101814.22
2023-02-26T16:17:39.732Z,101821.88
2023-02-26T16:20:14.923Z,101821.19
2023-02-26T16:22:56.578Z,101821.69
2023-02-26T16:25:29.869Z,101813.47
2023-02-26T16:28:06.276Z,101824.69
2023-02-26T16:30:38.805Z,101823.09
2023-02-26T16:33:11.952Z,101824.69
2023-02-26T16:35:46.692Z,101832.16
2023-02-26T16:38:25.676Z,101822.22
2023-02-26T16:41:10.966Z,101830.50
2023-02-26T16:43:49.515Z,101827.34
2023-02-26T16:46:37.666Z,101829.47
2023-02-26T16:49:04.379Z,101836.94
2023-02-26T16:51:34.728Z,101846.28
2023-02-26T16:54:07.574Z,101839.50
2023-02-26T16:56:41.030Z,101849.97
2023-02-26T16:59:13.752Z,101850.75
2023-02-26T17:01:49.966Z,101850.56
2023-02-26T17:04:19.615Z,101860.69
2023-02-26T17:06:47.581Z,101863.28
2023-02-26T17:09:29.420Z,101870.75
2023-02-26T17:12:45.899Z,101873.13
2023-02-26T17:15:21.415Z,101870.78
2023-02-26T17:17:48.697Z,101876.81
2023-02-26T17:20:15.658Z,101883.56
2023-02-26T17:22:44.936Z,101877.53
2023-02-26T17:25:15.882Z,101880.50
2023-02-26T17:27:43.352Z,101882.41
2023-02-26T17:30:18.748Z,101886.25
2023-02-26T17:32:45.515Z,101886.75
2023-02-26T17:35:16.926Z,101887.63
2023-02-26T17:37:46.787Z,101892.69
2023-02-26T17:40:36.478Z,101889.41
2023-02-26T17:43:04.651Z,101899.53
2023-02-26T17:45:33.129Z,101887.47
2023-02-26T17:48:00.335Z,101900.50
2023-02-26T17:50:50.392Z,101898.50
2023-02-26T17:53:18.897Z,101902.25
2023-02-26T17:55:47.551Z,101900.41
2023-02-26T17:58:28.812Z,101912.97
2023-02-26T18:00:56.315Z,101917.31
2023-02-26T18:03:23.153Z,101914.34
2023-02-26T18:05:52.145Z,101920.47
2023-02-26T18:08:25.203Z,101919.88
2023-02-26T18:10:52.715Z,101932.75
2023-02-26T18:13:20.254Z,101933.31
2023-02-26T18:15:47.863Z,101938.09
2023-02-26T18:18:15.880Z,101930.59
2023-02-26T18:20:44.066Z,101932.84
2023-02-26T18:23:13.804Z,101932.94
2023-02-26T18:25:41.400Z,101939.97
2023-02-26T18:28:18.709Z,101942.75
2023-02-26T18:30:47.153Z,101944.50
2023-02-26T18:33:17.193Z,101937.31
2023-02-26T18:35:47.115Z,101933.81
2023-02-26T18:38:16.087Z,101937.50
2023-02-26T18:40:43.923Z,101940.63
2023-02-26T18:43:12.714Z,101943.31
2023-02-26T18:45:40.305Z,101945.59
2023-02-26T18:48:07.037Z,101947.94
2023-02-26T18:50:34.055Z,101943.72
2023-02-26T18:53:00.888Z,101945.91
2023-02-26T18:55:27.568Z,101940.50
2023-02-26T18:57:54.338Z,101944.75
2023-02-26T19:00:21.745Z,101940.72
2023-02-26T19:02:48.539Z,101948.44
2023-02-26T19:05:16.515Z,101945.53
2023-02-26T19:07:43.478Z,101956.63
2023-02-26T19:10:14.647Z,101952.72
2023-02-26T19:12:42.018Z,101945.88
2023-02-26T19:15:10.214Z,101955.84
2023-02-26T19:17:36.889Z,101952.00
2023-02-26T19:20:03.849Z,101960.03
2023-02-26T19:22:30.618Z,101962.78
2023-02-26T19:24:57.254Z,101968.00
2023-02-26T19:27:23.948Z,101968.41
2023-02-26T19:29:50.711Z,101965.06
2023-02-26T19:32:17.505Z,101962.81
2023-02-26T19:34:44.357Z,101962.59
2023-02-26T19:37:11.192Z,101964.72
2023-02-26T19:39:38.403Z,101971.53
2023-02-26T19:42:05.712Z,101968.34
2023-02-26T19:44:32.639Z,101970.53
2023-02-26T19:47:00.079Z,101966.97
2023-02-26T19:49:27.424Z,101968.19
2023-02-26T19:51:54.098Z,101969.97
2023-02-26T19:54:21.270Z,101971.31
2023-02-26T19:56:49.591Z,101974.50
2023-02-26T19:59:16.826Z,101970.00
2023-02-26T20:01:44.025Z,101974.56
2023-02-26T20:04:10.797Z,101982.78
2023-02-26T20:06:37.976Z,101989.38
2023-02-26T20:09:07.244Z,101988.50
2023-02-26T20:11:34.715Z,101985.03
2023-02-26T20:14:02.447Z,101991.56
2023-02-26T20:16:29.254Z,101998.84
2023-02-26T20:18:55.879Z,101994.59
2023-02-26T20:21:23.383Z,101995.13
2023-02-26T20:23:50.502Z,102005.94
2023-02-26T20:26:17.236Z,102005.16
2023-02-26T20:28:44.546Z,102014.56
2023-02-26T20:31:11.790Z,102006.53
2023-02-26T20:33:39.538Z,102011.91
2023-02-26T20:36:09.359Z,102018.19
2023-02-26T20:38:36.202Z,102021.22
2023-02-26T20:41:03.643Z,102020.44
2023-02-26T20:43:30.375Z,102025.66
2023-02-26T20:45:57.060Z,102022.69
2023-02-26T20:48:24.760Z,102034.38
2023-02-26T20:50:53.668Z,102033.59
2023-02-26T20:53:21.637Z,102032.13
2023-02-26T20:55:48.907Z,102028.78
2023-02-26T20:58:16.148Z,102035.22
2023-02-26T21:00:43.740Z,102036.47
2023-02-26T21:03:10.563Z,102031.22
2023-02-26T21:05:38.627Z,102043.13
2023-02-26T21:08:05.768Z,102037.25
2023-02-26T21:10:32.808Z,102042.25
2023-02-26T21:12:59.900Z,102046.84
2023-02-26T21:15:26.756Z,102042.28
2023-02-26T21:17:53.683Z,102043.94
2023-02-26T21:20:22.307Z,102047.16
2023-02-26T21:22:49.646Z,102044.84
2023-02-26T21:25:16.720Z,102055.88
2023-02-26T21:27:43.798Z,102051.28
2023-02-26T21:30:12.255Z,102057.75
2023-02-26T21:32:40.145Z,102052.66
2023-02-26T21:35:09.007Z,102059.34
2023-02-26T21:37:39.082Z,102058.69
2023-02-26T21:40:06.690Z,102063.47
2023-02-26T21:42:33.521Z,102057.56
2023-02-26T21:45:00.352Z,102059.91
2023-02-26T21:47:27.003Z,102072.06
2023-02-26T21:49:53.823Z,102066.03
2023-02-26T21:52:20.555Z,102070.78
2023-02-26T21:54:47.232Z,102079.59
2023-02-26T21:57:14.060Z,102078.72
2023-02-26T21:59:40.877Z,102076.03
2023-02-26T22:02:07.792Z,102084.72
2023-02-26T22:04:34.849Z,102091.06
2023-02-26T22:07:01.583Z,102080.69
2023-02-26T22:09:28.286Z,102079.47
2023-02-26T22:11:55.025Z,102083.34
2023-02-26T22:14:22.031Z,102072.41
2023-02-26T22:16:48.736Z,102072.47
2023-02-26T22:19:15.409Z,102073.59
2023-02-26T22:21:42.105Z,102072.47
2023-02-26T22:24:09.246Z,102071.59
2023-02-26T22:26:36.277Z,102070.25
2023-02-26T22:29:03.734Z,102069.13
2023-02-26T22:31:32.282Z,102073.78
2023-02-26T22:33:59.849Z,102075.56
2023-02-26T22:36:27.667Z,102072.81
2023-02-26T22:38:54.553Z,102071.19
2023-02-26T22:41:21.265Z,102074.44
2023-02-26T22:43:48.019Z,102068.44
2023-02-26T22:46:17.020Z,102082.19
2023-02-26T22:48:44.552Z,102073.88
2023-02-26T22:51:11.228Z,102074.78
2023-02-26T22:53:37.982Z,102084.00
2023-02-26T22:56:04.982Z,102090.25
2023-02-26T22:58:31.828Z,102080.63
2023-02-26T23:01:05.135Z,102092.69
2023-02-26T23:03:32.556Z,102087.53
2023-02-26T23:06:00.188Z,102087.38
2023-02-26T23:08:27.973Z,102088.03
2023-02-26T23:10:59.198Z,102096.78
2023-02-26T23:13:27.274Z,102095.72
2023-02-26T23:15:54.083Z,102098.47
2023-02-26T23:18:21.097Z,102100.06
2023-02-26T23:20:49.108Z,102101.84
2023-02-26T23:23:16.325Z,102097.41
2023-02-26T23:25:43.795Z,102104.47
2023-02-26T23:28:10.591Z,102098.72
2023-02-26T23:30:37.358Z,102106.50
2023-02-26T23:33:05.392Z,102106.47
2023-02-26T23:35:32.069Z,102113.50
2023-02-26T23:37:58.696Z,102110.06
2023-02-26T23:40:25.625Z,102118.31
2023-02-26T23:42:52.988Z,102121.84
2023-02-26T23:45:19.748Z,102128.50
2023-02-26T23:47:46.424Z,102124.94
2023-02-26T23:50:13.390Z,102125.63
2023-02-26T23:52:40.144Z,102128.91
2023-02-26T23:55:07.582Z,102124.88
2023-02-26T23:57:34.340Z,102135.25
